Maben, Mississippi
Current Conditions -  °F | °C
As of 12:35 PM on Monday 26 Jan 2015 (Local Time) from KSTF Reporting Station
Scattered Clouds Scattered Clouds  
Wind Chill: 42°   Ceiling: Unl
Heat Index: 46°   Visibility: 10mi
Dew Point: 32°   Wind: 9mph
Humidity: 57%   Direction: 300°WNW
Pressure: 30.08"   Gusts: 18mph
Location:  33.56°N, 89.08°W
Report Text: KSTF 261835Z AUTO 30008G16KT 10SM SCT033 08/00 A3008 RMK AO2
Loading
Personal Weather Stations






























Interactive Weather Map New forecast layout! Learn more

10-Day Weather Forecast

Advertisements
Track Severe Weather on mobile